Time;durP1;ratioP1;P1;durP2;ratioP2;P2;SDS_P1;SDS_P2;PMS_P1;PMS_P2;Temp;Humidity;BMP_temperature;BMP_pressure;BME280_temperature;BME280_humidity;BME280_pressure;Samples;Min_cycle;Max_cycle;Signal;HPM_P1;HPM_P2
2021/07/08 00:02:53;;;;;;;8.90;7.97;;;26.00;90.20;;;;;;6349610;27;20217;-64
2021/07/08 00:05:57;;;;;;;8.77;7.50;;;26.00;90.30;;;;;;6349324;27;20600;-72
2021/07/08 00:09:00;;;;;;;8.40;7.70;;;26.00;90.60;;;;;;6356388;27;20192;-67
2021/07/08 00:12:07;;;;;;;8.70;8.07;;;25.90;90.70;;;;;;6374302;27;20205;-64
2021/07/08 00:15:13;;;;;;;7.70;7.20;;;25.90;90.80;;;;;;6373854;27;20237;-65
2021/07/08 00:18:16;;;;;;;7.90;7.30;;;25.90;90.90;;;;;;6351060;28;20229;-65
2021/07/08 00:21:20;;;;;;;8.73;8.03;;;25.90;91.00;;;;;;6345565;27;20681;-65
2021/07/08 00:24:23;;;;;;;9.03;8.20;;;26.00;91.00;;;;;;6345694;28;20224;-72
2021/07/08 00:27:27;;;;;;;8.97;8.07;;;26.00;91.00;;;;;;6346851;27;20221;-69
2021/07/08 00:30:31;;;;;;;8.33;7.73;;;26.00;91.10;;;;;;6344376;28;20221;-68
2021/07/08 00:33:34;;;;;;;8.33;7.73;;;25.90;91.20;;;;;;6348247;27;20565;-68
2021/07/08 00:36:37;;;;;;;8.83;8.13;;;25.80;91.40;;;;;;6346931;27;20221;-67
2021/07/08 00:39:40;;;;;;;8.17;7.60;;;25.80;91.50;;;;;;6348253;28;20221;-67
2021/07/08 00:42:46;;;;;;;8.60;7.87;;;25.80;91.70;;;;;;6348334;28;20282;-67
2021/07/08 00:45:50;;;;;;;9.00;8.33;;;25.80;91.90;;;;;;6346686;28;20840;-68
2021/07/08 00:48:53;;;;;;;9.47;8.67;;;25.70;92.00;;;;;;6348091;27;20232;-69
2021/07/08 00:51:57;;;;;;;8.37;7.77;;;25.60;92.20;;;;;;6348409;27;20240;-68
2021/07/08 00:55:01;;;;;;;8.23;7.53;;;25.60;92.40;;;;;;6349055;27;20229;-69
2021/07/08 00:58:07;;;;;;;8.67;8.00;;;25.50;92.40;;;;;;6348751;27;20599;-69
2021/07/08 01:01:10;;;;;;;8.47;7.87;;;25.50;92.70;;;;;;6349170;27;20236;-69
2021/07/08 01:04:15;;;;;;;7.80;7.30;;;25.50;92.60;;;;;;6348877;27;20221;-68
2021/07/08 01:07:22;;;;;;;8.07;7.50;;;25.40;92.80;;;;;;6348694;27;20229;-68
2021/07/08 01:10:26;;;;;;;8.00;7.33;;;25.40;93.00;;;;;;6348785;27;20229;-68
2021/07/08 01:13:30;;;;;;;8.73;8.00;;;25.30;93.30;;;;;;6348765;27;20229;-68
2021/07/08 01:16:34;;;;;;;7.87;7.27;;;25.30;93.40;;;;;;6348467;27;20237;-69
2021/07/08 01:19:41;;;;;;;8.97;8.20;;;25.30;93.50;;;;;;6349701;27;20244;-68
2021/07/08 01:22:48;;;;;;;7.67;7.17;;;25.20;93.60;;;;;;6353340;27;20572;-68
2021/07/08 01:25:52;;;;;;;8.70;8.00;;;25.20;93.90;;;;;;6353198;27;20240;-68
2021/07/08 01:28:56;;;;;;;8.97;8.23;;;25.10;94.00;;;;;;6353012;27;20225;-70
2021/07/08 01:32:00;;;;;;;8.67;8.13;;;25.00;94.10;;;;;;6353376;27;20225;-68
2021/07/08 01:35:05;;;;;;;9.73;9.03;;;25.00;94.40;;;;;;6352715;27;20676;-67
2021/07/08 01:38:09;;;;;;;8.80;8.20;;;25.00;94.70;;;;;;6352818;27;20670;-66
2021/07/08 01:41:13;;;;;;;7.97;7.47;;;24.90;94.80;;;;;;6352316;27;20574;-67
2021/07/08 01:44:17;;;;;;;8.00;7.40;;;24.90;94.80;;;;;;6352481;27;20326;-66
2021/07/08 01:47:20;;;;;;;8.43;7.83;;;24.90;94.90;;;;;;6352892;27;20220;-67
2021/07/08 01:50:23;;;;;;;9.07;8.23;;;24.90;95.10;;;;;;6352561;27;20561;-67
2021/07/08 01:53:28;;;;;;;8.53;7.93;;;24.80;95.20;;;;;;6352387;27;20237;-68
2021/07/08 01:56:32;;;;;;;9.30;8.70;;;24.80;95.50;;;;;;6347323;28;20221;-68
2021/07/08 01:59:36;;;;;;;9.00;8.30;;;24.70;95.70;;;;;;6350677;28;20697;-69
2021/07/08 02:02:39;;;;;;;9.80;9.13;;;24.60;95.90;;;;;;6349462;28;20654;-68
2021/07/08 02:05:42;;;;;;;8.67;8.10;;;24.60;96.00;;;;;;6349641;28;20570;-67
2021/07/08 02:08:48;;;;;;;9.00;8.20;;;24.60;96.20;;;;;;6341910;27;20240;-68
2021/07/08 02:11:51;;;;;;;8.23;7.53;;;24.60;96.30;;;;;;6348552;27;20568;-69
2021/07/08 02:14:54;;;;;;;9.13;8.43;;;24.50;96.50;;;;;;6351846;28;20229;-69
2021/07/08 02:17:57;;;;;;;9.67;8.87;;;24.50;96.60;;;;;;6351797;28;20697;-69
2021/07/08 02:21:01;;;;;;;9.50;8.50;;;24.50;96.70;;;;;;6351759;28;20205;-70
2021/07/08 02:24:06;;;;;;;10.10;9.30;;;24.40;96.80;;;;;;6352711;28;20225;-69
2021/07/08 02:27:09;;;;;;;8.80;8.10;;;24.40;96.90;;;;;;6351461;28;20237;-68
2021/07/08 02:30:14;;;;;;;10.23;9.50;;;24.30;97.10;;;;;;6351484;28;20586;-68
2021/07/08 02:33:17;;;;;;;11.03;9.50;;;24.20;97.40;;;;;;6351440;28;20248;-69
2021/07/08 02:36:21;;;;;;;9.50;8.70;;;24.10;97.70;;;;;;6351786;28;20236;-69
2021/07/08 02:39:25;;;;;;;9.60;8.77;;;24.10;97.70;;;;;;6351442;27;20237;-68
2021/07/08 02:42:29;;;;;;;9.00;8.30;;;24.20;97.70;;;;;;6351213;28;20222;-68
2021/07/08 02:45:34;;;;;;;9.10;8.50;;;24.10;97.70;;;;;;6351002;28;20283;-68
2021/07/08 02:48:37;;;;;;;9.17;8.47;;;24.10;97.80;;;;;;6351311;28;20229;-68
2021/07/08 02:51:40;;;;;;;10.27;9.27;;;24.10;97.90;;;;;;6351076;28;20232;-68
2021/07/08 02:54:45;;;;;;;9.97;9.10;;;24.00;98.30;;;;;;6351256;28;20234;-68
2021/07/08 02:57:48;;;;;;;9.63;8.93;;;24.00;98.20;;;;;;6351335;28;20229;-67
2021/07/08 03:00:52;;;;;;;10.00;9.20;;;24.00;98.30;;;;;;6350863;28;20237;-67
2021/07/08 03:03:55;;;;;;;10.07;9.37;;;24.00;98.30;;;;;;6350875;28;20719;-67
2021/07/08 03:06:58;;;;;;;9.60;8.93;;;23.90;98.30;;;;;;6350434;28;20225;-69
2021/07/08 03:10:03;;;;;;;10.17;9.37;;;23.90;98.40;;;;;;6350646;28;20229;-67
2021/07/08 03:13:07;;;;;;;9.43;8.73;;;23.90;98.60;;;;;;6350461;28;20567;-68
2021/07/08 03:16:11;;;;;;;8.77;8.17;;;23.80;98.70;;;;;;6350315;28;20229;-67
2021/07/08 03:19:14;;;;;;;9.53;8.73;;;23.80;98.70;;;;;;6350295;28;20312;-68
2021/07/08 03:22:17;;;;;;;9.17;8.37;;;23.70;98.90;;;;;;6350577;28;20232;-68
2021/07/08 03:25:23;;;;;;;9.23;8.53;;;23.70;98.90;;;;;;6350428;28;20303;-68
2021/07/08 03:28:26;;;;;;;9.90;9.20;;;23.70;99.30;;;;;;6350505;28;20218;-68
2021/07/08 03:31:29;;;;;;;9.03;8.33;;;23.60;99.50;;;;;;6350144;28;20237;-68
2021/07/08 03:34:33;;;;;;;9.67;8.80;;;23.50;99.70;;;;;;6350186;28;20229;-68
2021/07/08 03:37:36;;;;;;;10.60;9.77;;;23.50;99.70;;;;;;6349946;28;20229;-69
2021/07/08 03:40:42;;;;;;;9.17;8.37;;;23.60;99.70;;;;;;6349899;28;20666;-68
2021/07/08 03:43:46;;;;;;;10.07;9.37;;;23.60;99.70;;;;;;6349448;28;20226;-69
2021/07/08 03:46:49;;;;;;;10.43;9.63;;;23.60;99.70;;;;;;6349884;28;20241;-68
2021/07/08 03:49:52;;;;;;;10.77;9.63;;;23.60;99.70;;;;;;6349946;28;20226;-69
2021/07/08 03:52:56;;;;;;;11.50;9.20;;;23.60;99.60;;;;;;6349771;28;20229;-68
2021/07/08 03:56:01;;;;;;;10.10;9.40;;;23.60;99.80;;;;;;6349757;28;20244;-69
2021/07/08 03:59:04;;;;;;;9.90;9.10;;;23.60;99.80;;;;;;6349410;28;20296;-67
2021/07/08 04:02:07;;;;;;;10.57;9.67;;;23.70;99.80;;;;;;6350095;28;20237;-66
2021/07/08 04:05:11;;;;;;;11.37;10.47;;;23.60;99.80;;;;;;6349644;28;20236;-65
2021/07/08 04:08:15;;;;;;;10.70;9.80;;;23.60;99.90;;;;;;6349322;28;20244;-66
2021/07/08 04:11:20;;;;;;;10.60;9.70;;;23.60;99.90;;;;;;6349434;28;20221;-67
2021/07/08 04:14:23;;;;;;;10.93;9.83;;;23.60;99.90;;;;;;6344568;28;20244;-67
2021/07/08 04:17:26;;;;;;;10.70;9.90;;;23.60;99.90;;;;;;6348917;28;20240;-67
2021/07/08 04:20:30;;;;;;;10.13;9.37;;;23.70;99.90;;;;;;6349129;28;20702;-68
2021/07/08 04:23:33;;;;;;;12.37;11.30;;;23.80;99.90;;;;;;6349154;28;20698;-68
2021/07/08 04:26:38;;;;;;;10.30;9.47;;;23.90;99.90;;;;;;6349015;28;20251;-68
2021/07/08 04:29:41;;;;;;;11.13;10.33;;;24.00;99.90;;;;;;6349288;28;20238;-67
2021/07/08 04:32:44;;;;;;;11.13;10.13;;;24.10;99.90;;;;;;6349017;28;20251;-67
2021/07/08 04:35:49;;;;;;;11.57;10.57;;;24.10;99.90;;;;;;6349125;28;20244;-67
2021/07/08 04:38:53;;;;;;;10.90;10.10;;;24.20;99.90;;;;;;6349014;28;20221;-67
2021/07/08 04:41:58;;;;;;;10.70;9.90;;;24.20;99.80;;;;;;6349467;28;20206;-67
2021/07/08 04:45:01;;;;;;;12.97;11.57;;;24.40;99.70;;;;;;6348692;28;20602;-67
2021/07/08 04:48:06;;;;;;;11.77;10.87;;;24.50;99.30;;;;;;6349305;28;20216;-67
2021/07/08 04:51:11;;;;;;;12.00;11.10;;;24.60;99.30;;;;;;6349133;28;20241;-68
2021/07/08 04:54:14;;;;;;;12.03;11.03;;;24.70;99.30;;;;;;6350021;28;20244;-67
2021/07/08 04:57:19;;;;;;;11.70;10.80;;;24.80;99.20;;;;;;6353886;27;20704;-70
2021/07/08 05:00:23;;;;;;;12.10;11.30;;;24.90;99.00;;;;;;6353667;28;20569;-68
2021/07/08 05:03:26;;;;;;;12.20;11.17;;;25.10;98.70;;;;;;6353884;28;20560;-68
2021/07/08 05:06:29;;;;;;;13.73;12.30;;;25.10;98.70;;;;;;6353589;27;20690;-67
2021/07/08 05:09:33;;;;;;;12.90;12.00;;;25.30;98.60;;;;;;6353648;28;20225;-67
2021/07/08 05:12:37;;;;;;;13.57;12.37;;;25.40;98.50;;;;;;6353720;28;20232;-69
2021/07/08 05:15:41;;;;;;;13.30;12.30;;;25.50;98.30;;;;;;6348907;28;20240;-70
2021/07/08 05:18:44;;;;;;;12.83;11.90;;;25.60;98.20;;;;;;6353272;27;20373;-69
2021/07/08 05:21:50;;;;;;;13.93;12.63;;;25.70;97.90;;;;;;6353671;28;20236;-69
2021/07/08 05:24:54;;;;;;;13.53;12.20;;;25.90;97.70;;;;;;6353314;28;20236;-69
2021/07/08 05:27:59;;;;;;;12.60;11.50;;;26.10;97.40;;;;;;6353179;28;20705;-69
2021/07/08 05:31:02;;;;;;;13.83;12.70;;;26.20;97.20;;;;;;6352744;28;20548;-68
2021/07/08 05:34:05;;;;;;;14.13;13.03;;;26.30;96.90;;;;;;6352714;28;20674;-68
2021/07/08 05:37:08;;;;;;;13.93;12.37;;;26.30;96.90;;;;;;6352563;28;20225;-68
2021/07/08 05:40:12;;;;;;;13.60;12.50;;;26.40;96.80;;;;;;6352726;28;20228;-67
2021/07/08 05:43:17;;;;;;;13.60;12.40;;;26.40;96.60;;;;;;6352549;28;20229;-68
2021/07/08 05:46:22;;;;;;;14.27;13.00;;;26.50;96.50;;;;;;6352386;28;20611;-68
2021/07/08 05:49:25;;;;;;;16.67;13.20;;;26.60;96.30;;;;;;6352877;28;20225;-70
2021/07/08 05:52:29;;;;;;;13.57;12.50;;;26.60;96.30;;;;;;6352576;28;20564;-67
2021/07/08 05:55:32;;;;;;;13.40;12.30;;;26.60;96.00;;;;;;6352455;28;20650;-70
2021/07/08 05:58:37;;;;;;;18.50;12.50;;;26.70;96.00;;;;;;6352582;28;20228;-68
2021/07/08 06:01:40;;;;;;;13.80;12.67;;;26.90;95.80;;;;;;6352380;28;20244;-68
2021/07/08 06:04:43;;;;;;;14.47;13.23;;;27.10;95.40;;;;;;6351917;28;20225;-67
2021/07/08 06:07:47;;;;;;;14.33;13.23;;;27.40;95.10;;;;;;6352509;28;20236;-68
2021/07/08 06:10:51;;;;;;;14.00;12.70;;;27.60;94.80;;;;;;6352229;28;20251;-68
2021/07/08 06:13:55;;;;;;;14.63;13.27;;;27.90;94.10;;;;;;6351993;27;20239;-67
2021/07/08 06:16:59;;;;;;;12.90;11.70;;;28.30;93.10;;;;;;6351324;28;20225;-68
2021/07/08 06:20:02;;;;;;;12.90;11.50;;;28.90;91.80;;;;;;6342711;28;20236;-68
2021/07/08 06:23:06;;;;;;;13.17;12.27;;;29.20;90.70;;;;;;6351977;28;20228;-68
2021/07/08 06:26:09;;;;;;;11.23;10.03;;;29.50;89.50;;;;;;6351460;28;20551;-68
2021/07/08 06:29:14;;;;;;;12.33;11.33;;;29.70;88.00;;;;;;6351548;28;20564;-68
2021/07/08 06:32:18;;;;;;;11.80;10.97;;;30.30;86.30;;;;;;6351344;28;20285;-67
2021/07/08 06:35:21;;;;;;;11.90;10.98;;;30.90;83.70;;;;;;6351356;28;20233;-68
2021/07/08 06:38:24;;;;;;;12.23;11.32;;;31.40;81.00;;;;;;6351317;28;20225;-67
2021/07/08 06:41:28;;;;;;;12.27;11.13;;;32.10;78.30;;;;;;6351432;28;20229;-67
2021/07/08 06:44:32;;;;;;;11.10;10.40;;;32.40;75.60;;;;;;6351286;28;20701;-67
2021/07/08 06:47:40;;;;;;;10.85;9.95;;;32.70;72.80;;;;;;6351180;28;20225;-67
2021/07/08 06:50:44;;;;;;;10.90;10.05;;;32.80;71.70;;;;;;6350351;28;20564;-67
2021/07/08 06:53:47;;;;;;;10.98;10.18;;;33.30;70.20;;;;;;6350812;28;20574;-68
2021/07/08 06:56:50;;;;;;;10.95;10.15;;;33.80;67.80;;;;;;6350851;28;20218;-68
2021/07/08 06:59:55;;;;;;;10.48;9.48;;;34.40;66.10;;;;;;6351284;28;20228;-70
2021/07/08 07:03:00;;;;;;;10.18;9.38;;;35.40;62.00;;;;;;6351317;28;20254;-68
2021/07/08 07:06:04;;;;;;;11.07;9.98;;;35.80;60.00;;;;;;6351413;28;20221;-68
2021/07/08 07:09:14;;;;;;;9.95;9.02;;;35.70;59.60;;;;;;6350574;28;20671;-68
2021/07/08 07:12:17;;;;;;;9.30;8.40;;;36.30;57.50;;;;;;6351065;28;20432;-70
2021/07/08 07:15:23;;;;;;;10.65;9.02;;;36.70;56.60;;;;;;6350044;28;20677;-69
2021/07/08 07:18:26;;;;;;;9.55;8.65;;;37.10;54.30;;;;;;6349468;28;20232;-69
2021/07/08 07:21:29;;;;;;;8.43;7.72;;;37.20;53.30;;;;;;6350456;28;20244;-69
2021/07/08 07:24:33;;;;;;;9.30;8.80;;;37.10;53.90;;;;;;6350301;27;20552;-68
2021/07/08 07:27:37;;;;;;;10.70;9.23;;;37.60;52.70;;;;;;6349582;28;20236;-70
2021/07/08 07:30:42;;;;;;;8.70;7.05;;;38.00;51.20;;;;;;6350391;28;20278;-69
2021/07/08 07:33:46;;;;;;;9.15;8.27;;;37.90;49.10;;;;;;6350198;28;20239;-68
2021/07/08 07:36:50;;;;;;;8.13;7.53;;;37.60;50.10;;;;;;6349478;28;20239;-69
2021/07/08 07:39:53;;;;;;;8.25;7.50;;;36.50;51.60;;;;;;6346207;28;20311;-69
2021/07/08 07:42:56;;;;;;;7.90;7.20;;;37.10;52.10;;;;;;6341875;28;20225;-66
2021/07/08 07:46:01;;;;;;;20.05;9.77;;;37.50;50.60;;;;;;6355019;27;20232;-69
2021/07/08 07:49:07;;;;;;;8.95;8.15;;;38.80;48.90;;;;;;6363912;27;20235;-70
2021/07/08 07:52:12;;;;;;;9.35;8.55;;;39.50;47.30;;;;;;6349569;28;20236;-70
2021/07/08 07:55:16;;;;;;;8.50;7.90;;;39.90;46.40;;;;;;6349047;28;20251;-74
2021/07/08 07:58:20;;;;;;;7.70;7.15;;;39.70;45.90;;;;;;6348602;28;20236;-73
2021/07/08 08:01:24;;;;;;;8.45;7.95;;;39.30;46.10;;;;;;6349239;28;20231;-74
2021/07/08 08:04:31;;;;;;;9.02;8.43;;;38.90;46.60;;;;;;6362368;27;20228;-74
2021/07/08 08:10:58;;;;;;;8.88;8.27;;;38.00;48.00;;;;;;6347724;28;20662;-73
2021/07/08 08:14:02;;;;;;;9.40;8.70;;;37.10;49.50;;;;;;6366235;27;20228;-72
2021/07/08 08:17:06;;;;;;;10.23;9.23;;;36.50;50.70;;;;;;6354113;27;20772;-72
2021/07/08 08:20:14;;;;;;;9.98;8.80;;;36.20;51.50;;;;;;6348789;28;20228;-69
2021/07/08 08:23:18;;;;;;;9.27;8.57;;;36.00;52.40;;;;;;6349459;28;20713;-67
2021/07/08 08:26:21;;;;;;;9.60;8.70;;;35.70;53.00;;;;;;6349100;28;20323;-70
2021/07/08 08:29:25;;;;;;;9.93;9.20;;;35.80;53.10;;;;;;6362967;27;20228;-72
2021/07/08 08:32:30;;;;;;;9.18;8.57;;;35.70;53.40;;;;;;6357587;27;20235;-68
2021/07/08 08:35:34;;;;;;;10.45;9.70;;;35.50;53.40;;;;;;6353584;28;20233;-68
2021/07/08 08:38:37;;;;;;;9.15;8.45;;;35.30;54.20;;;;;;6354008;28;20231;-69
2021/07/08 08:41:40;;;;;;;9.73;9.02;;;35.20;54.50;;;;;;6347209;28;20562;-68
2021/07/08 08:44:44;;;;;;;9.63;8.85;;;35.20;54.60;;;;;;6352995;28;20239;-68
2021/07/08 08:47:57;;;;;;;8.63;7.93;;;35.20;54.80;;;;;;6328725;27;20240;-68
2021/07/08 08:51:00;;;;;;;10.10;9.40;;;34.80;55.90;;;;;;6368154;27;20212;-69
2021/07/08 08:54:04;;;;;;;10.23;9.38;;;34.70;55.80;;;;;;6402806;27;20760;-69
2021/07/08 08:57:08;;;;;;;10.93;10.00;;;34.70;55.90;;;;;;6379340;27;20200;-68
2021/07/08 09:00:39;;;;;;;12.02;11.02;;;34.20;57.40;;;;;;6379326;27;20236;-69
2021/07/08 09:03:44;;;;;;;10.32;9.65;;;34.30;57.40;;;;;;6379348;27;20231;-68
2021/07/08 09:06:48;;;;;;;9.90;9.20;;;34.20;57.50;;;;;;6379066;27;20229;-68
2021/07/08 09:09:53;;;;;;;10.30;9.55;;;34.30;57.40;;;;;;6378703;27;20235;-68
2021/07/08 09:12:59;;;;;;;11.15;9.48;;;34.20;58.10;;;;;;6377957;27;20573;-71
2021/07/08 09:16:10;;;;;;;9.30;8.60;;;34.40;58.00;;;;;;6370198;27;20236;-68
2021/07/08 09:19:18;;;;;;;9.95;9.15;;;34.40;57.70;;;;;;6364597;27;20559;-69
2021/07/08 09:22:29;;;;;;;8.65;8.07;;;34.50;57.10;;;;;;6379161;27;20247;-68
2021/07/08 09:25:32;;;;;;;8.73;7.95;;;34.70;56.50;;;;;;6378302;27;20236;-73
2021/07/08 09:28:38;;;;;;;8.07;7.57;;;34.80;55.70;;;;;;6378180;27;20239;-65
2021/07/08 09:31:41;;;;;;;8.80;8.18;;;34.60;55.60;;;;;;6373506;27;20216;-69
2021/07/08 09:34:48;;;;;;;8.75;8.15;;;34.70;55.50;;;;;;6378413;27;20235;-68
2021/07/08 09:37:51;;;;;;;8.98;8.23;;;34.50;55.70;;;;;;6378177;27;20220;-66
2021/07/08 09:41:07;;;;;;;8.38;7.50;;;34.40;55.60;;;;;;6377029;27;20696;-69
2021/07/08 09:44:21;;;;;;;9.68;8.77;;;34.10;56.80;;;;;;6352262;28;20237;-71
2021/07/08 09:47:27;;;;;;;8.15;7.65;;;33.90;57.20;;;;;;6352359;28;20229;-65
2021/07/08 09:50:41;;;;;;;11.23;10.25;;;33.80;57.90;;;;;;6350570;27;20225;-70
2021/07/08 09:53:51;;;;;;;8.73;8.02;;;34.00;57.90;;;;;;6352404;28;20244;-68
2021/07/08 09:56:56;;;;;;;8.52;7.85;;;34.20;56.80;;;;;;6352449;27;20228;-69
2021/07/08 10:00:00;;;;;;;8.50;7.70;;;33.80;56.90;;;;;;6378246;27;20222;-67
2021/07/08 10:03:04;;;;;;;9.25;8.55;;;33.90;56.90;;;;;;6377273;27;20344;-68
2021/07/08 10:06:10;;;;;;;8.80;8.10;;;34.20;56.60;;;;;;6378006;27;20224;-69
2021/07/08 10:09:18;;;;;;;9.18;7.95;;;34.10;56.50;;;;;;6377266;27;20227;-67
2021/07/08 10:12:23;;;;;;;9.00;8.35;;;34.20;56.80;;;;;;6378024;27;20229;-68
2021/07/08 10:15:29;;;;;;;8.63;8.00;;;34.10;57.00;;;;;;6377071;27;20236;-67
2021/07/08 10:18:34;;;;;;;9.27;8.20;;;34.20;57.00;;;;;;6377538;27;20228;-68
2021/07/08 10:21:39;;;;;;;9.68;8.77;;;34.40;57.10;;;;;;6377223;27;20220;-67
2021/07/08 10:24:42;;;;;;;10.07;9.05;;;34.20;57.50;;;;;;6377338;27;20228;-68
2021/07/08 10:27:46;;;;;;;9.38;8.57;;;34.30;57.50;;;;;;6377598;27;20232;-69
2021/07/08 10:30:52;;;;;;;10.13;9.38;;;34.50;57.30;;;;;;6377195;27;20307;-68
2021/07/08 10:34:14;;;;;;;10.07;9.27;;;34.40;56.70;;;;;;6373244;27;20236;-69
2021/07/08 10:37:32;;;;;;;10.05;9.20;;;34.00;58.10;;;;;;6377077;27;20247;-69
2021/07/08 10:40:46;;;;;;;9.88;9.27;;;33.80;58.90;;;;;;6376422;27;20683;-69
2021/07/08 10:43:49;;;;;;;10.05;9.35;;;34.10;58.50;;;;;;6336243;27;20240;-68
2021/07/08 10:47:45;;;;;;;10.13;9.18;;;34.20;58.00;;;;;;6325631;28;20272;-67
2021/07/08 10:50:50;;;;;;;10.20;9.07;;;34.00;59.10;;;;;;6307610;28;20659;-66
2021/07/08 10:53:55;;;;;;;11.40;10.18;;;33.90;59.20;;;;;;6298009;28;20221;-67
2021/07/08 10:57:00;;;;;;;10.48;9.52;;;34.10;59.20;;;;;;6375299;27;20211;-69
2021/07/08 11:00:05;;;;;;;11.30;10.02;;;34.30;58.70;;;;;;6400498;27;20180;-70
2021/07/08 11:03:42;;;;;;;9.73;8.93;;;34.40;57.90;;;;;;6376419;27;20679;-69
2021/07/08 11:06:47;;;;;;;10.02;9.32;;;34.30;57.80;;;;;;6376344;27;20220;-69
2021/07/08 11:10:02;;;;;;;9.38;8.57;;;34.40;58.20;;;;;;6366786;27;20243;-69
2021/07/08 11:13:27;;;;;;;10.70;9.73;;;34.30;59.00;;;;;;6350500;27;20602;-69
2021/07/08 11:16:41;;;;;;;9.40;8.80;;;34.60;58.80;;;;;;6350054;27;20233;-69
2021/07/08 11:19:49;;;;;;;10.70;9.80;;;34.80;58.50;;;;;;6349590;27;20354;-70
2021/07/08 11:22:52;;;;;;;10.77;9.88;;;34.60;57.40;;;;;;6349799;27;20225;-68
2021/07/08 11:25:57;;;;;;;11.07;10.07;;;34.90;56.90;;;;;;6350365;27;20233;-69
2021/07/08 11:29:01;;;;;;;10.27;9.50;;;35.10;55.90;;;;;;6350438;27;20225;-69
2021/07/08 11:32:21;;;;;;;9.75;9.02;;;35.30;56.80;;;;;;6350384;27;20216;-68
2021/07/08 11:35:28;;;;;;;10.07;9.27;;;35.40;56.40;;;;;;6349705;27;20702;-68
2021/07/08 11:38:33;;;;;;;10.13;9.50;;;35.60;56.10;;;;;;6350056;27;20710;-68
2021/07/08 11:41:40;;;;;;;11.68;10.88;;;35.70;54.90;;;;;;6330150;27;20225;-67
2021/07/08 11:44:45;;;;;;;10.18;9.48;;;35.50;55.50;;;;;;6324451;27;20620;-67
2021/07/08 11:47:50;;;;;;;11.55;10.60;;;35.30;56.00;;;;;;6324202;28;20234;-66
2021/07/08 11:50:53;;;;;;;13.23;10.88;;;35.00;56.70;;;;;;6360156;27;20235;-67
2021/07/08 11:53:57;;;;;;;11.00;10.25;;;34.90;57.00;;;;;;6399854;27;20214;-70
2021/07/08 11:57:02;;;;;;;11.98;11.13;;;35.00;56.90;;;;;;6375136;27;20215;-70
2021/07/08 12:00:06;;;;;;;10.93;10.15;;;35.00;56.70;;;;;;6374589;27;20667;-70
2021/07/08 12:03:21;;;;;;;12.82;11.65;;;34.90;56.70;;;;;;6374469;27;20560;-68
2021/07/08 12:06:27;;;;;;;12.95;12.05;;;35.10;56.90;;;;;;6374717;27;20232;-66
2021/07/08 12:09:30;;;;;;;11.95;10.95;;;35.30;56.30;;;;;;6375224;27;20224;-67
2021/07/08 12:12:35;;;;;;;11.90;11.10;;;35.20;55.60;;;;;;6374543;27;20654;-70
2021/07/08 12:15:42;;;;;;;12.45;11.65;;;35.00;56.10;;;;;;6374746;27;20236;-68
2021/07/08 12:18:47;;;;;;;14.27;13.07;;;35.00;56.30;;;;;;6374747;27;20685;-69
2021/07/08 12:21:53;;;;;;;14.05;12.90;;;35.20;56.30;;;;;;6374932;27;20605;-71
2021/07/08 12:24:56;;;;;;;13.70;12.70;;;35.10;56.60;;;;;;6374775;27;20250;-70
2021/07/08 12:28:01;;;;;;;16.00;14.80;;;35.30;56.40;;;;;;6374417;27;20564;-65
2021/07/08 12:31:04;;;;;;;16.30;15.00;;;34.90;56.30;;;;;;6374508;27;20224;-64
2021/07/08 12:34:08;;;;;;;14.13;13.13;;;34.70;57.30;;;;;;6374343;27;20669;-70
2021/07/08 12:37:16;;;;;;;15.30;14.10;;;34.90;57.00;;;;;;6374987;27;20224;-70
2021/07/08 12:40:23;;;;;;;16.23;14.68;;;35.00;57.90;;;;;;6374434;27;20316;-65
2021/07/08 12:43:28;;;;;;;16.42;15.43;;;35.20;57.70;;;;;;6324244;27;20236;-70
2021/07/08 12:46:31;;;;;;;15.80;14.68;;;35.30;57.80;;;;;;6323570;28;20237;-67
2021/07/08 12:49:35;;;;;;;15.82;14.77;;;35.20;57.60;;;;;;6337432;28;20223;-70
2021/07/08 12:52:42;;;;;;;17.85;16.63;;;35.00;57.50;;;;;;6389152;27;20215;-70
2021/07/08 12:55:49;;;;;;;19.10;17.33;;;34.80;58.70;;;;;;6384306;27;20305;-73
2021/07/08 12:58:58;;;;;;;17.38;16.10;;;34.60;58.60;;;;;;6374155;27;20242;-68
2021/07/08 13:02:01;;;;;;;18.10;16.77;;;34.40;58.80;;;;;;6374600;27;20224;-70
2021/07/08 13:05:08;;;;;;;19.15;17.75;;;34.40;59.20;;;;;;6374192;27;20236;-66
2021/07/08 13:08:13;;;;;;;18.02;16.83;;;34.30;59.60;;;;;;6374278;27;20243;-74
2021/07/08 13:11:19;;;;;;;16.83;15.68;;;34.30;59.50;;;;;;6373788;27;20556;-71
2021/07/08 13:14:25;;;;;;;17.25;16.05;;;34.30;59.30;;;;;;6374384;27;20249;-74
2021/07/08 13:17:29;;;;;;;17.98;16.80;;;34.40;58.50;;;;;;6377676;27;20681;-68
2021/07/08 13:20:34;;;;;;;17.73;16.42;;;33.60;60.30;;;;;;6378824;27;20231;-72
2021/07/08 13:23:37;;;;;;;19.38;17.77;;;33.00;62.30;;;;;;6327640;28;20715;-69
2021/07/08 13:26:46;;;;;;;19.80;18.23;;;32.80;62.90;;;;;;6328203;28;20221;-69
2021/07/08 13:29:51;;;;;;;19.25;17.85;;;33.00;63.00;;;;;;6327815;28;20589;-73
2021/07/08 13:33:15;;;;;;;18.17;16.98;;;33.30;62.80;;;;;;6328402;28;20519;-76
2021/07/08 13:36:20;;;;;;;17.33;16.13;;;33.30;62.70;;;;;;6349349;27;20245;-73
2021/07/08 13:39:25;;;;;;;18.38;17.17;;;33.50;62.60;;;;;;6327661;28;20552;-69
2021/07/08 13:42:29;;;;;;;18.75;17.38;;;33.80;62.50;;;;;;6327317;28;20225;-70
2021/07/08 13:45:34;;;;;;;17.65;16.35;;;33.90;62.10;;;;;;6328464;28;20239;-68
2021/07/08 13:48:39;;;;;;;16.73;15.63;;;33.90;61.40;;;;;;6352814;27;20232;-67
2021/07/08 13:51:47;;;;;;;17.17;16.02;;;33.80;63.00;;;;;;6402911;27;20223;-66
2021/07/08 13:54:50;;;;;;;18.17;16.80;;;33.90;61.70;;;;;;6403870;27;20238;-69
2021/07/08 13:57:53;;;;;;;17.90;16.70;;;34.10;61.10;;;;;;6403939;27;20589;-68
2021/07/08 14:00:58;;;;;;;19.15;17.67;;;34.20;61.10;;;;;;6403571;27;20223;-71
2021/07/08 14:04:01;;;;;;;16.27;15.02;;;34.20;60.50;;;;;;6403550;27;20346;-71
2021/07/08 14:07:05;;;;;;;17.52;16.17;;;34.10;58.50;;;;;;6403556;27;20223;-69
2021/07/08 14:10:09;;;;;;;15.68;14.57;;;33.90;59.50;;;;;;6377359;27;20693;-67
2021/07/08 14:13:12;;;;;;;18.17;16.58;;;33.80;60.30;;;;;;6377848;27;20231;-66
2021/07/08 14:16:17;;;;;;;16.30;15.05;;;33.80;60.60;;;;;;6360605;27;20546;-66
2021/07/08 14:19:21;;;;;;;18.67;17.27;;;33.80;60.90;;;;;;6351844;27;20673;-67
2021/07/08 14:22:24;;;;;;;18.38;17.08;;;33.90;60.20;;;;;;6351129;27;20220;-65
2021/07/08 14:25:28;;;;;;;21.15;19.58;;;34.00;61.20;;;;;;6358604;27;20221;-73
2021/07/08 14:28:31;;;;;;;20.63;18.73;;;33.70;61.70;;;;;;6348914;27;20225;-65
2021/07/08 14:31:36;;;;;;;19.38;18.08;;;33.30;62.80;;;;;;6349632;27;20232;-63
2021/07/08 14:34:40;;;;;;;20.17;18.60;;;33.00;63.40;;;;;;6349152;27;20232;-63
2021/07/08 14:37:43;;;;;;;19.30;17.90;;;33.20;63.30;;;;;;6360666;27;20693;-64
2021/07/08 14:40:48;;;;;;;17.67;16.25;;;33.50;62.40;;;;;;6357244;27;20575;-64
2021/07/08 14:44:04;;;;;;;17.05;15.75;;;33.60;60.40;;;;;;6362311;27;20669;-63
2021/07/08 14:47:12;;;;;;;17.73;16.50;;;33.80;60.60;;;;;;6357158;27;20236;-63
2021/07/08 14:50:17;;;;;;;16.92;15.82;;;33.80;60.90;;;;;;6378482;27;20574;-64
2021/07/08 14:53:20;;;;;;;19.17;17.77;;;34.10;60.60;;;;;;6361926;27;20225;-70
2021/07/08 14:56:24;;;;;;;20.08;18.40;;;34.40;60.20;;;;;;6365705;27;20561;-65
2021/07/08 14:59:28;;;;;;;16.98;15.77;;;34.50;60.00;;;;;;6349915;27;20533;-71
2021/07/08 15:02:33;;;;;;;17.77;16.58;;;34.70;59.50;;;;;;6349297;27;20855;-65
2021/07/08 15:05:36;;;;;;;15.73;14.63;;;34.90;59.50;;;;;;6347731;27;20666;-70
2021/07/08 15:08:40;;;;;;;16.88;15.77;;;34.50;58.80;;;;;;6348103;27;20559;-69
2021/07/08 15:11:43;;;;;;;17.67;16.55;;;34.50;60.50;;;;;;6348481;27;20220;-69
2021/07/08 15:14:46;;;;;;;19.02;17.67;;;34.10;61.40;;;;;;6357120;27;20220;-74
2021/07/08 15:17:51;;;;;;;17.83;16.52;;;33.80;62.10;;;;;;6361424;27;20256;-75
2021/07/08 15:20:55;;;;;;;19.13;17.83;;;33.50;63.80;;;;;;6351943;27;20235;-65
2021/07/08 15:23:58;;;;;;;20.77;19.27;;;33.60;64.40;;;;;;6365198;27;20662;-63
2021/07/08 15:27:01;;;;;;;19.45;18.08;;;33.60;65.00;;;;;;6353500;27;20215;-64
2021/07/08 15:30:05;;;;;;;17.88;16.60;;;33.60;65.80;;;;;;6361256;27;20215;-65
2021/07/08 15:33:15;;;;;;;17.33;15.88;;;33.80;64.50;;;;;;6356576;27;20196;-64
2021/07/08 15:36:19;;;;;;;20.10;18.52;;;34.10;62.60;;;;;;6357662;27;20306;-64
2021/07/08 15:39:23;;;;;;;17.90;16.58;;;34.30;63.30;;;;;;6364033;27;20233;-63
2021/07/08 15:42:26;;;;;;;19.23;17.92;;;34.00;65.00;;;;;;6363822;27;20674;-66
2021/07/08 15:45:29;;;;;;;19.55;18.25;;;33.80;64.90;;;;;;6359093;27;20248;-63
2021/07/08 15:48:34;;;;;;;18.38;17.17;;;33.80;65.80;;;;;;6339214;28;20235;-68
2021/07/08 15:51:38;;;;;;;17.48;16.38;;;34.00;65.60;;;;;;6361548;27;20224;-67
2021/07/08 15:54:41;;;;;;;17.90;16.60;;;34.30;63.30;;;;;;6330904;28;20617;-68